createdAt,value
2022-12-18T00:01:27.900Z,-1.82
2022-12-18T00:03:56.521Z,-1.81
2022-12-18T00:06:24.617Z,-1.80
2022-12-18T00:08:52.058Z,-1.85
2022-12-18T00:11:26.919Z,-1.84
2022-12-18T00:13:56.552Z,-1.88
2022-12-18T00:16:25.407Z,-1.92
2022-12-18T00:18:55.255Z,-1.95
2022-12-18T00:21:22.580Z,-1.99
2022-12-18T00:23:50.633Z,-2.01
2022-12-18T00:26:39.663Z,-2.08
2022-12-18T00:29:12.444Z,-2.12
2022-12-18T00:31:39.597Z,-2.22
2022-12-18T00:34:07.048Z,-2.28
2022-12-18T00:36:35.421Z,-2.34
2022-12-18T00:39:05.123Z,-2.37
2022-12-18T00:41:52.459Z,-2.37
2022-12-18T00:44:19.795Z,-2.44
2022-12-18T00:46:48.288Z,-2.53
2022-12-18T00:49:17.726Z,-2.54
2022-12-18T00:51:44.739Z,-2.66
2022-12-18T00:54:12.330Z,-2.71
2022-12-18T00:56:48.255Z,-2.69
2022-12-18T00:59:16.991Z,-2.70
2022-12-18T01:01:43.997Z,-2.82
2022-12-18T01:04:11.116Z,-2.75
2022-12-18T01:06:37.920Z,-2.72
2022-12-18T01:09:04.863Z,-2.82
2022-12-18T01:11:32.456Z,-2.72
2022-12-18T01:14:00.634Z,-2.75
2022-12-18T01:16:27.924Z,-2.74
2022-12-18T01:18:55.637Z,-2.75
2022-12-18T01:21:24.147Z,-2.70
2022-12-18T01:23:56.133Z,-2.65
2022-12-18T01:26:23.575Z,-2.65
2022-12-18T01:28:50.622Z,-2.60
2022-12-18T01:31:20.991Z,-2.59
2022-12-18T01:33:48.179Z,-2.58
2022-12-18T01:36:29.912Z,-2.57
2022-12-18T01:38:57.531Z,-2.61
2022-12-18T01:41:27.418Z,-2.64
2022-12-18T01:43:58.332Z,-2.71
2022-12-18T01:46:26.406Z,-2.71
2022-12-18T01:49:02.121Z,-2.70
2022-12-18T01:51:31.538Z,-2.68
2022-12-18T01:54:00.334Z,-2.71
2022-12-18T01:56:27.382Z,-2.66
2022-12-18T01:58:54.394Z,-2.68
2022-12-18T02:01:24.205Z,-2.68
2022-12-18T02:03:51.188Z,-2.75
2022-12-18T02:06:30.657Z,-2.78
2022-12-18T02:09:19.802Z,-2.87
2022-12-18T02:11:55.501Z,-2.96
2022-12-18T02:14:34.925Z,-2.99
2022-12-18T02:17:13.888Z,-2.99
2022-12-18T02:19:43.554Z,-2.99
2022-12-18T02:22:38.099Z,-3.04
2022-12-18T02:25:44.064Z,-3.09
2022-12-18T02:28:16.596Z,-3.21
2022-12-18T02:30:47.256Z,-3.36
2022-12-18T02:33:15.567Z,-3.35
2022-12-18T02:35:45.163Z,-3.33
2022-12-18T02:38:13.862Z,-3.40
2022-12-18T02:40:43.323Z,-3.47
2022-12-18T02:43:12.888Z,-3.45
2022-12-18T02:45:56.742Z,-3.46
2022-12-18T02:48:34.234Z,-3.48
2022-12-18T02:51:13.031Z,-3.53
2022-12-18T02:53:49.166Z,-3.56
2022-12-18T02:56:18.227Z,-3.54
2022-12-18T02:58:59.727Z,-3.59
2022-12-18T03:02:02.328Z,-3.59
2022-12-18T03:04:35.931Z,-3.61
2022-12-18T03:07:10.509Z,-3.64
2022-12-18T03:09:43.121Z,-3.71
2022-12-18T03:12:26.024Z,-3.74
2022-12-18T03:15:18.486Z,-3.76
2022-12-18T03:17:56.182Z,-3.80
2022-12-18T03:20:25.321Z,-3.81
2022-12-18T03:23:01.870Z,-3.81
2022-12-18T03:25:30.107Z,-3.82
2022-12-18T03:28:00.129Z,-3.85
2022-12-18T03:30:29.694Z,-3.89
2022-12-18T03:33:13.147Z,-3.90
2022-12-18T03:35:42.807Z,-4.01
2022-12-18T03:38:11.342Z,-3.97
2022-12-18T03:40:51.828Z,-4.02
2022-12-18T03:44:11.285Z,-4.02
2022-12-18T03:46:53.199Z,-3.99
2022-12-18T03:49:39.777Z,-4.02
2022-12-18T03:52:21.328Z,-4.03
2022-12-18T03:54:48.710Z,-4.08
2022-12-18T03:57:21.634Z,-4.12
2022-12-18T03:59:53.354Z,-4.13
2022-12-18T04:02:23.596Z,-4.12
2022-12-18T04:04:54.687Z,-4.23
2022-12-18T04:07:23.474Z,-4.17
2022-12-18T04:09:53.786Z,-4.22
2022-12-18T04:12:20.722Z,-4.25
2022-12-18T04:14:47.625Z,-4.28
2022-12-18T04:17:14.475Z,-4.29
2022-12-18T04:19:41.423Z,-4.28
2022-12-18T04:22:11.286Z,-4.26
2022-12-18T04:24:38.351Z,-4.31
2022-12-18T04:27:05.543Z,-4.39
2022-12-18T04:29:33.220Z,-4.40
2022-12-18T04:32:00.102Z,-4.35
2022-12-18T04:34:27.118Z,-4.42
2022-12-18T04:36:53.880Z,-4.43
2022-12-18T04:39:21.365Z,-4.51
2022-12-18T04:41:48.095Z,-4.48
2022-12-18T04:44:15.036Z,-4.48
2022-12-18T04:46:42.013Z,-4.55
2022-12-18T04:49:08.934Z,-4.47
2022-12-18T04:51:35.742Z,-4.49
2022-12-18T04:54:03.098Z,-4.53
2022-12-18T04:56:32.670Z,-4.54
2022-12-18T04:58:59.594Z,-4.57
2022-12-18T05:01:32.508Z,-4.58
2022-12-18T05:04:01.901Z,-4.60
2022-12-18T05:06:28.799Z,-4.64
2022-12-18T05:08:55.772Z,-4.64
2022-12-18T05:11:22.646Z,-4.63
2022-12-18T05:13:49.637Z,-4.66
2022-12-18T05:16:16.739Z,-4.69
2022-12-18T05:18:44.025Z,-4.70
2022-12-18T05:21:10.910Z,-4.70
2022-12-18T05:23:38.270Z,-4.70
2022-12-18T05:26:07.359Z,-4.75
2022-12-18T05:28:36.410Z,-4.77
2022-12-18T05:31:05.019Z,-4.81
2022-12-18T05:33:34.027Z,-4.82
2022-12-18T05:36:02.580Z,-4.81
2022-12-18T05:38:30.993Z,-4.86
2022-12-18T05:40:58.219Z,-4.87
2022-12-18T05:43:26.823Z,-4.86
2022-12-18T05:45:54.552Z,-4.92
2022-12-18T05:48:22.222Z,-4.92
2022-12-18T05:50:51.280Z,-5.03
2022-12-18T05:53:20.799Z,-4.95
2022-12-18T05:55:48.084Z,-5.02
2022-12-18T05:58:15.794Z,-4.95
2022-12-18T06:00:45.833Z,-4.96
2022-12-18T06:03:13.625Z,-5.03
2022-12-18T06:05:42.789Z,-5.02
2022-12-18T06:08:10.072Z,-5.03
2022-12-18T06:10:37.707Z,-5.02
2022-12-18T06:13:05.104Z,-5.02
2022-12-18T06:15:31.938Z,-5.11
2022-12-18T06:17:59.327Z,-5.08
2022-12-18T06:20:31.821Z,-5.14
2022-12-18T06:23:00.400Z,-5.12
2022-12-18T06:25:27.237Z,-5.14
2022-12-18T06:27:54.146Z,-5.11
2022-12-18T06:30:21.412Z,-5.12
2022-12-18T06:32:54.661Z,-5.14
2022-12-18T06:35:23.797Z,-5.23
2022-12-18T06:37:50.693Z,-5.16
2022-12-18T06:40:17.898Z,-5.27
2022-12-18T06:42:44.772Z,-5.18
2022-12-18T06:45:12.573Z,-5.20
2022-12-18T06:47:39.479Z,-5.16
2022-12-18T06:50:06.868Z,-5.21
2022-12-18T06:52:34.597Z,-5.09
2022-12-18T06:55:01.960Z,-5.11
2022-12-18T06:57:29.011Z,-5.13
2022-12-18T06:59:55.953Z,-5.02
2022-12-18T07:02:23.014Z,-4.99
2022-12-18T07:04:50.032Z,-4.96
2022-12-18T07:07:16.924Z,-4.91
2022-12-18T07:09:43.952Z,-4.89
2022-12-18T07:12:10.944Z,-4.84
2022-12-18T07:14:37.731Z,-4.75
2022-12-18T07:17:04.612Z,-4.90
2022-12-18T07:19:32.790Z,-4.58
2022-12-18T07:21:59.898Z,-4.50
2022-12-18T07:24:26.725Z,-4.36
2022-12-18T07:26:53.763Z,-4.22
2022-12-18T07:29:20.657Z,-4.06
2022-12-18T07:31:47.704Z,-3.84
2022-12-18T07:34:16.317Z,-3.57
2022-12-18T07:36:43.845Z,-3.36
2022-12-18T07:39:12.546Z,-3.27
2022-12-18T07:41:45.213Z,-3.24
2022-12-18T07:44:13.863Z,-3.12
2022-12-18T07:46:40.744Z,-2.98
2022-12-18T07:49:07.814Z,-2.76
2022-12-18T07:51:34.631Z,-2.75
2022-12-18T07:54:03.984Z,-2.75
2022-12-18T07:56:31.583Z,-2.37
2022-12-18T07:58:59.938Z,-1.96
2022-12-18T08:01:28.754Z,-1.58
2022-12-18T08:03:56.015Z,-1.37
2022-12-18T08:06:24.455Z,-1.26
2022-12-18T08:08:53.770Z,-1.19
2022-12-18T08:11:20.702Z,-1.28
2022-12-18T08:13:48.588Z,-0.87
2022-12-18T08:16:16.942Z,-0.79
2022-12-18T08:18:43.961Z,-0.64
2022-12-18T08:21:20.610Z,-0.21
2022-12-18T08:23:49.381Z,-0.10
2022-12-18T08:26:18.677Z,0.16
2022-12-18T08:28:46.164Z,0.27
2022-12-18T08:31:17.974Z,0.59
2022-12-18T08:33:44.872Z,0.95
2022-12-18T08:36:12.043Z,0.91
2022-12-18T08:38:39.152Z,1.06
2022-12-18T08:41:08.633Z,0.74
2022-12-18T08:43:54.413Z,1.23
2022-12-18T08:46:23.557Z,1.23
2022-12-18T08:48:52.816Z,1.51
2022-12-18T08:51:20.606Z,1.61
2022-12-18T08:53:47.940Z,2.18
2022-12-18T08:56:15.703Z,1.80
2022-12-18T08:58:43.858Z,2.17
2022-12-18T09:01:12.919Z,2.14
2022-12-18T09:03:40.556Z,2.61
2022-12-18T09:06:08.516Z,2.56
2022-12-18T09:08:35.818Z,2.72
2022-12-18T09:11:02.765Z,2.46
2022-12-18T09:13:29.842Z,2.43
2022-12-18T09:15:56.862Z,2.15
2022-12-18T09:18:25.329Z,1.81
2022-12-18T09:20:53.906Z,1.86
2022-12-18T09:23:21.994Z,1.87
2022-12-18T09:25:49.533Z,1.60
2022-12-18T09:28:19.183Z,1.81
2022-12-18T09:30:50.460Z,1.29
2022-12-18T09:33:17.800Z,1.59
2022-12-18T09:35:46.279Z,1.75
2022-12-18T09:38:16.102Z,1.87
2022-12-18T09:40:45.150Z,1.96
2022-12-18T09:43:18.894Z,1.78
2022-12-18T09:45:50.407Z,2.25
2022-12-18T09:48:24.698Z,2.36
2022-12-18T09:50:53.384Z,2.77
2022-12-18T09:53:27.862Z,3.04
2022-12-18T09:55:57.432Z,3.68
2022-12-18T09:58:46.370Z,4.06
2022-12-18T10:01:17.518Z,4.31
2022-12-18T10:03:44.639Z,4.32
2022-12-18T10:06:32.894Z,4.57
2022-12-18T10:09:38.213Z,5.21
2022-12-18T10:12:17.293Z,5.67
2022-12-18T10:15:12.965Z,5.94
2022-12-18T10:17:53.185Z,5.79
2022-12-18T10:20:42.535Z,6.05
2022-12-18T10:23:29.407Z,6.82
2022-12-18T10:26:06.114Z,5.91
2022-12-18T10:28:35.992Z,6.19
2022-12-18T10:31:03.524Z,5.49
2022-12-18T10:33:33.420Z,5.12
2022-12-18T10:36:01.207Z,4.84
2022-12-18T10:38:33.000Z,5.21
2022-12-18T10:41:02.607Z,4.32
2022-12-18T10:43:35.174Z,3.39
2022-12-18T10:46:15.596Z,3.26
2022-12-18T10:48:51.489Z,3.29
2022-12-18T10:51:23.291Z,3.17
2022-12-18T10:54:00.508Z,3.05
2022-12-18T10:56:29.804Z,2.88
2022-12-18T10:59:07.860Z,2.58
2022-12-18T11:01:48.868Z,2.69
2022-12-18T11:04:24.466Z,2.79
2022-12-18T11:07:00.251Z,3.49
2022-12-18T11:09:33.267Z,3.97
2022-12-18T11:12:07.247Z,3.99
2022-12-18T11:14:47.155Z,5.31
2022-12-18T11:17:25.842Z,6.32
2022-12-18T11:19:55.553Z,6.84
2022-12-18T11:22:27.610Z,7.53
2022-12-18T11:28:04.751Z,8.72
2022-12-18T11:30:36.622Z,9.13
2022-12-18T11:33:21.934Z,9.56
2022-12-18T11:36:04.741Z,8.53
2022-12-18T11:38:41.264Z,9.14
2022-12-18T11:41:50.030Z,8.86
2022-12-18T11:44:32.897Z,7.95
2022-12-18T11:47:13.873Z,8.59
2022-12-18T11:49:42.394Z,9.50
2022-12-18T11:52:20.017Z,9.21
2022-12-18T11:54:46.837Z,8.95
2022-12-18T11:57:28.573Z,9.45
2022-12-18T12:00:13.540Z,9.88
2022-12-18T12:03:16.020Z,9.51
2022-12-18T12:06:07.797Z,10.08
2022-12-18T12:09:05.154Z,10.46
2022-12-18T12:11:38.064Z,10.16
2022-12-18T12:14:07.861Z,10.74
2022-12-18T12:16:50.151Z,10.44
2022-12-18T12:19:27.048Z,10.76
2022-12-18T12:22:05.014Z,9.99
2022-12-18T12:24:34.714Z,9.94
2022-12-18T12:27:40.807Z,10.24
2022-12-18T12:30:23.763Z,9.69
2022-12-18T12:33:02.707Z,9.81
2022-12-18T12:35:44.517Z,9.19
2022-12-18T12:38:21.111Z,9.98
2022-12-18T12:41:04.547Z,10.48
2022-12-18T12:43:49.591Z,10.88
2022-12-18T12:46:20.854Z,9.72
2022-12-18T12:48:53.718Z,10.53
2022-12-18T12:51:24.917Z,10.34
2022-12-18T12:53:54.480Z,10.26
2022-12-18T12:56:28.904Z,10.75
2022-12-18T12:59:03.254Z,11.01
2022-12-18T13:01:38.172Z,10.97
2022-12-18T13:04:22.815Z,9.98
2022-12-18T13:07:05.892Z,10.19
2022-12-18T13:09:36.891Z,9.85
2022-12-18T13:12:41.818Z,9.87
2022-12-18T13:15:25.200Z,10.64
2022-12-18T13:18:15.736Z,10.31
2022-12-18T13:20:52.259Z,10.34
2022-12-18T13:23:29.379Z,10.73
2022-12-18T13:26:24.763Z,10.38
2022-12-18T13:28:56.532Z,10.75
2022-12-18T13:31:44.780Z,10.04
2022-12-18T13:34:26.768Z,10.34
2022-12-18T13:36:56.219Z,10.43
2022-12-18T13:39:32.686Z,10.05
2022-12-18T13:42:07.002Z,10.09
2022-12-18T13:44:40.572Z,10.09
2022-12-18T13:47:32.407Z,10.05
2022-12-18T13:50:00.107Z,9.69
2022-12-18T13:52:34.549Z,9.09
2022-12-18T13:55:06.288Z,9.57
2022-12-18T13:57:41.804Z,9.23
2022-12-18T14:00:17.830Z,8.87
2022-12-18T14:02:46.599Z,9.32
2022-12-18T14:05:29.176Z,8.85
2022-12-18T14:08:02.607Z,8.91
2022-12-18T14:10:48.931Z,9.01
2022-12-18T14:13:25.222Z,9.05
2022-12-18T14:15:52.509Z,8.55
2022-12-18T14:18:59.826Z,7.76
2022-12-18T14:21:31.726Z,6.97
2022-12-18T14:24:20.482Z,6.24
2022-12-18T14:26:51.822Z,5.50
2022-12-18T14:29:21.807Z,4.98
2022-12-18T14:32:18.764Z,4.49
2022-12-18T14:34:47.999Z,4.38
2022-12-18T14:37:18.055Z,4.11
2022-12-18T14:40:10.560Z,4.00
2022-12-18T14:42:38.494Z,3.69
2022-12-18T14:45:41.432Z,3.47
2022-12-18T14:48:22.919Z,3.25
2022-12-18T14:51:04.655Z,3.05
2022-12-18T14:53:36.686Z,2.84
2022-12-18T14:56:13.516Z,2.63
2022-12-18T14:58:40.580Z,2.48
2022-12-18T15:01:10.625Z,2.33
2022-12-18T15:03:45.184Z,2.19
2022-12-18T15:06:26.703Z,2.05
2022-12-18T15:08:56.382Z,1.92
2022-12-18T15:11:36.270Z,1.78
2022-12-18T15:14:25.654Z,1.65
2022-12-18T15:16:56.887Z,1.51
2022-12-18T15:19:40.299Z,1.44
2022-12-18T15:22:22.157Z,1.22
2022-12-18T15:24:50.458Z,1.15
2022-12-18T15:27:27.496Z,1.10
2022-12-18T15:30:22.979Z,0.99
2022-12-18T15:32:51.539Z,0.90
2022-12-18T15:35:27.472Z,0.85
2022-12-18T15:37:55.144Z,0.79
2022-12-18T15:40:27.115Z,0.70
2022-12-18T15:43:15.196Z,0.69
2022-12-18T15:45:42.786Z,0.54
2022-12-18T15:48:30.777Z,0.44
2022-12-18T15:51:00.037Z,0.39
2022-12-18T15:53:35.274Z,0.30
2022-12-18T15:56:21.270Z,0.16
2022-12-18T15:58:50.773Z,0.11
2022-12-18T16:01:18.963Z,0.02
2022-12-18T16:03:46.809Z,-0.05
2022-12-18T16:06:14.351Z,-0.08
2022-12-18T16:08:41.877Z,-0.11
2022-12-18T16:11:39.867Z,-0.16
2022-12-18T16:14:20.490Z,-0.17
2022-12-18T16:16:50.849Z,-0.25
2022-12-18T16:19:21.077Z,-0.33
2022-12-18T16:21:50.814Z,-0.36
2022-12-18T16:24:23.738Z,-0.48
2022-12-18T16:26:52.824Z,-0.54
2022-12-18T16:29:28.616Z,-0.64
2022-12-18T16:32:00.442Z,-0.83
2022-12-18T16:34:35.637Z,-0.93
2022-12-18T16:37:06.496Z,-0.92
2022-12-18T16:39:35.933Z,-0.94
2022-12-18T16:42:16.068Z,-1.13
2022-12-18T16:44:45.636Z,-1.30
2022-12-18T16:47:15.374Z,-1.35
2022-12-18T16:49:46.047Z,-1.39
2022-12-18T16:52:14.613Z,-1.32
2022-12-18T16:54:42.577Z,-1.34
2022-12-18T16:57:18.609Z,-1.43
2022-12-18T16:59:47.147Z,-1.40
2022-12-18T17:02:19.203Z,-1.46
2022-12-18T17:04:56.008Z,-1.43
2022-12-18T17:07:24.060Z,-1.48
2022-12-18T17:09:52.127Z,-1.53
2022-12-18T17:12:20.116Z,-1.52
2022-12-18T17:14:49.453Z,-1.58
2022-12-18T17:17:22.338Z,-1.54
2022-12-18T17:19:52.616Z,-1.53
2022-12-18T17:22:21.754Z,-1.68
2022-12-18T17:24:49.455Z,-1.68
2022-12-18T17:27:17.329Z,-1.71
2022-12-18T17:29:47.677Z,-1.80
2022-12-18T17:32:17.768Z,-1.91
2022-12-18T17:34:47.121Z,-1.95
2022-12-18T17:37:16.176Z,-2.11
2022-12-18T17:39:46.245Z,-2.05
2022-12-18T17:42:15.863Z,-2.03
2022-12-18T17:44:45.457Z,-2.10
2022-12-18T17:47:14.786Z,-2.20
2022-12-18T17:49:42.634Z,-2.25
2022-12-18T17:52:11.090Z,-2.27
2022-12-18T17:54:41.918Z,-2.31
2022-12-18T17:57:09.381Z,-2.33
2022-12-18T17:59:36.965Z,-2.47
2022-12-18T18:02:04.760Z,-2.48
2022-12-18T18:04:32.761Z,-2.51
2022-12-18T18:07:00.377Z,-2.50
2022-12-18T18:09:28.748Z,-2.48
2022-12-18T18:12:16.033Z,-2.51
2022-12-18T18:14:44.639Z,-2.47
2022-12-18T18:17:12.026Z,-2.53
2022-12-18T18:19:39.668Z,-2.67
2022-12-18T18:22:08.554Z,-2.62
2022-12-18T18:24:36.342Z,-2.74
2022-12-18T18:27:08.320Z,-2.77
2022-12-18T18:29:37.019Z,-2.74
2022-12-18T18:32:05.341Z,-2.79
2022-12-18T18:34:34.121Z,-2.76
2022-12-18T18:37:02.722Z,-2.76
2022-12-18T18:39:31.091Z,-2.75
2022-12-18T18:41:58.662Z,-2.82
2022-12-18T18:44:26.599Z,-2.87
2022-12-18T18:46:55.607Z,-2.99
2022-12-18T18:49:24.464Z,-2.99
2022-12-18T18:51:54.200Z,-2.99
2022-12-18T18:54:22.426Z,-3.06
2022-12-18T18:59:38.537Z,-3.11
2022-12-18T19:02:06.177Z,-3.10
2022-12-18T19:04:35.229Z,-3.10
2022-12-18T19:07:04.927Z,-3.16
2022-12-18T19:09:32.616Z,-3.20
2022-12-18T19:12:19.378Z,-3.26
2022-12-18T19:14:47.433Z,-3.29
2022-12-18T19:17:15.097Z,-3.38
2022-12-18T19:19:43.035Z,-3.31
2022-12-18T19:22:13.005Z,-3.35
2022-12-18T19:24:40.649Z,-3.38
2022-12-18T19:27:07.778Z,-3.42
2022-12-18T19:29:35.429Z,-3.42
2022-12-18T19:32:05.854Z,-3.43
2022-12-18T19:34:35.111Z,-3.48
2022-12-18T19:37:02.286Z,-3.52
2022-12-18T19:39:35.550Z,-3.56
2022-12-18T19:42:03.417Z,-3.58
2022-12-18T19:44:32.877Z,-3.61
2022-12-18T19:47:00.433Z,-3.53
2022-12-18T19:49:30.112Z,-3.59
2022-12-18T19:51:57.863Z,-3.66
2022-12-18T19:54:26.324Z,-3.74
2022-12-18T19:56:54.152Z,-3.74
2022-12-18T19:59:22.721Z,-3.73
2022-12-18T20:01:51.227Z,-3.66
2022-12-18T20:04:21.705Z,-3.67
2022-12-18T20:06:52.104Z,-3.73
2022-12-18T20:09:20.691Z,-3.68
2022-12-18T20:11:50.470Z,-3.66
2022-12-18T20:14:22.821Z,-3.75
2022-12-18T20:16:51.684Z,-3.81
2022-12-18T20:19:19.769Z,-3.92
2022-12-18T20:21:48.221Z,-3.93
2022-12-18T20:24:16.780Z,-3.90
2022-12-18T20:26:44.554Z,-3.92
2022-12-18T20:29:12.108Z,-3.92
2022-12-18T20:31:39.733Z,-3.95
2022-12-18T20:34:07.240Z,-3.86
2022-12-18T20:36:44.173Z,-3.85
2022-12-18T20:39:12.269Z,-3.83
2022-12-18T20:41:40.871Z,-3.87
2022-12-18T20:44:21.835Z,-3.81
2022-12-18T20:46:54.037Z,-3.71
2022-12-18T20:49:25.649Z,-3.73
2022-12-18T20:51:54.729Z,-3.58
2022-12-18T20:54:24.440Z,-3.47
2022-12-18T20:56:52.111Z,-3.43
2022-12-18T20:59:19.989Z,-3.36
2022-12-18T21:01:48.863Z,-3.35
2022-12-18T21:04:18.328Z,-3.33
2022-12-18T21:06:51.425Z,-3.31
2022-12-18T21:09:20.789Z,-3.38
2022-12-18T21:12:06.917Z,-3.23
2022-12-18T21:14:33.925Z,-3.28
2022-12-18T21:17:02.149Z,-3.18
2022-12-18T21:19:29.970Z,-3.11
2022-12-18T21:21:58.246Z,-3.13
2022-12-18T21:24:25.817Z,-3.03
2022-12-18T21:26:56.981Z,-3.00
2022-12-18T21:29:26.051Z,-2.91
2022-12-18T21:31:54.601Z,-2.82
2022-12-18T21:34:27.438Z,-2.78
2022-12-18T21:36:55.881Z,-2.80
2022-12-18T21:39:23.555Z,-2.74
2022-12-18T21:42:09.558Z,-2.77
2022-12-18T21:44:42.381Z,-2.67
2022-12-18T21:47:21.471Z,-2.56
2022-12-18T21:49:51.680Z,-2.55
2022-12-18T21:52:19.121Z,-2.45
2022-12-18T21:54:45.918Z,-2.42
2022-12-18T21:57:15.521Z,-2.38
2022-12-18T21:59:45.860Z,-2.32
2022-12-18T22:02:16.213Z,-2.37
2022-12-18T22:04:43.969Z,-2.34
2022-12-18T22:07:11.693Z,-2.36
2022-12-18T22:09:39.070Z,-2.40
2022-12-18T22:12:06.295Z,-2.27
2022-12-18T22:14:33.115Z,-2.17
2022-12-18T22:17:00.020Z,-2.16
2022-12-18T22:19:28.161Z,-2.18
2022-12-18T22:21:55.058Z,-2.19
2022-12-18T22:24:24.509Z,-2.14
2022-12-18T22:26:56.201Z,-2.12
2022-12-18T22:29:47.460Z,-2.20
2022-12-18T22:32:30.807Z,-2.21
2022-12-18T22:35:07.921Z,-2.09
2022-12-18T22:37:35.134Z,-2.05
2022-12-18T22:40:03.709Z,-1.96
2022-12-18T22:42:31.358Z,-1.89
2022-12-18T22:44:58.337Z,-1.95
2022-12-18T22:47:29.430Z,-1.86
2022-12-18T22:49:57.228Z,-1.80
2022-12-18T22:52:25.038Z,-1.80
2022-12-18T22:54:53.386Z,-1.77
2022-12-18T22:57:22.041Z,-1.74
2022-12-18T22:59:50.325Z,-1.77
2022-12-18T23:02:18.153Z,-1.76
2022-12-18T23:04:45.442Z,-1.74
2022-12-18T23:07:12.587Z,-1.75
2022-12-18T23:09:40.097Z,-1.77
2022-12-18T23:12:08.302Z,-1.65
2022-12-18T23:14:35.432Z,-1.75
2022-12-18T23:17:02.378Z,-1.74
2022-12-18T23:19:29.298Z,-1.73
2022-12-18T23:21:58.730Z,-1.67
2022-12-18T23:24:26.307Z,-1.72
2022-12-18T23:26:53.210Z,-1.64
2022-12-18T23:29:20.586Z,-1.64
2022-12-18T23:31:49.979Z,-1.62
2022-12-18T23:34:18.029Z,-1.63
2022-12-18T23:36:46.696Z,-1.63
2022-12-18T23:39:28.378Z,-1.62
2022-12-18T23:41:59.873Z,-1.63
2022-12-18T23:44:26.732Z,-1.62
2022-12-18T23:46:53.655Z,-1.62
2022-12-18T23:49:23.751Z,-1.62
2022-12-18T23:51:50.545Z,-1.59
2022-12-18T23:54:17.468Z,-1.56
2022-12-18T23:56:59.617Z,-1.56
2022-12-18T23:59:26.758Z,-1.58
